sensor_id;sensor_type;location;lat;lon;timestamp;pressure;altitude;pressure_sealevel;temperature;humidity
30967;BME280;17649;51.836;8.330;2023-12-14T00:00:11;100091.56;;;8.41;100.00
30967;BME280;17649;51.836;8.330;2023-12-14T00:03:12;100104.97;;;8.30;100.00
30967;BME280;17649;51.836;8.330;2023-12-14T00:06:13;100104.59;;;8.53;100.00
30967;BME280;17649;51.836;8.330;2023-12-14T00:09:13;100112.34;;;8.53;100.00
30967;BME280;17649;51.836;8.330;2023-12-14T00:12:14;100121.00;;;8.52;100.00
30967;BME280;17649;51.836;8.330;2023-12-14T00:15:14;100126.91;;;8.54;100.00
30967;BME280;17649;51.836;8.330;2023-12-14T00:18:14;100126.31;;;8.49;100.00
30967;BME280;17649;51.836;8.330;2023-12-14T00:21:15;100136.00;;;8.28;100.00
30967;BME280;17649;51.836;8.330;2023-12-14T00:24:15;100137.22;;;8.39;100.00
30967;BME280;17649;51.836;8.330;2023-12-14T00:27:15;100135.16;;;8.28;100.00
30967;BME280;17649;51.836;8.330;2023-12-14T00:30:16;100141.38;;;8.08;100.00
30967;BME280;17649;51.836;8.330;2023-12-14T00:33:16;100137.59;;;7.98;100.00
30967;BME280;17649;51.836;8.330;2023-12-14T00:36:20;100146.13;;;8.16;100.00
30967;BME280;17649;51.836;8.330;2023-12-14T00:39:20;100154.69;;;8.32;100.00
30967;BME280;17649;51.836;8.330;2023-12-14T00:42:20;100153.44;;;8.41;100.00
30967;BME280;17649;51.836;8.330;2023-12-14T00:45:21;100158.00;;;8.51;100.00
30967;BME280;17649;51.836;8.330;2023-12-14T00:48:21;100158.84;;;8.52;100.00
30967;BME280;17649;51.836;8.330;2023-12-14T00:51:21;100169.34;;;8.31;100.00
30967;BME280;17649;51.836;8.330;2023-12-14T00:54:22;100180.31;;;8.02;100.00
30967;BME280;17649;51.836;8.330;2023-12-14T00:57:22;100189.47;;;8.25;100.00
30967;BME280;17649;51.836;8.330;2023-12-14T01:00:23;100202.19;;;7.77;100.00
30967;BME280;17649;51.836;8.330;2023-12-14T01:03:23;100215.97;;;7.76;100.00
30967;BME280;17649;51.836;8.330;2023-12-14T01:06:23;100214.19;;;8.12;100.00
30967;BME280;17649;51.836;8.330;2023-12-14T01:09:24;100215.97;;;8.27;100.00
30967;BME280;17649;51.836;8.330;2023-12-14T01:12:24;100217.13;;;8.39;100.00
30967;BME280;17649;51.836;8.330;2023-12-14T01:15:24;100210.41;;;8.36;100.00
30967;BME280;17649;51.836;8.330;2023-12-14T01:18:25;100209.59;;;8.51;100.00
30967;BME280;17649;51.836;8.330;2023-12-14T01:21:25;100216.34;;;8.03;100.00
30967;BME280;17649;51.836;8.330;2023-12-14T01:24:25;100217.31;;;8.01;100.00
30967;BME280;17649;51.836;8.330;2023-12-14T01:27:26;100232.69;;;8.20;100.00
30967;BME280;17649;51.836;8.330;2023-12-14T01:30:26;100237.63;;;8.07;100.00
30967;BME280;17649;51.836;8.330;2023-12-14T01:33:26;100236.97;;;8.03;100.00
30967;BME280;17649;51.836;8.330;2023-12-14T01:36:27;100245.03;;;8.13;100.00
30967;BME280;17649;51.836;8.330;2023-12-14T01:39:27;100248.16;;;8.20;100.00
30967;BME280;17649;51.836;8.330;2023-12-14T01:42:27;100261.03;;;8.20;100.00
30967;BME280;17649;51.836;8.330;2023-12-14T01:45:28;100262.91;;;8.33;100.00
30967;BME280;17649;51.836;8.330;2023-12-14T01:48:28;100268.31;;;8.12;100.00
30967;BME280;17649;51.836;8.330;2023-12-14T01:51:28;100273.03;;;8.03;100.00
30967;BME280;17649;51.836;8.330;2023-12-14T01:54:29;100286.13;;;8.16;100.00
30967;BME280;17649;51.836;8.330;2023-12-14T01:57:29;100295.66;;;8.14;100.00
30967;BME280;17649;51.836;8.330;2023-12-14T02:03:51;100311.22;;;8.13;100.00
30967;BME280;17649;51.836;8.330;2023-12-14T02:06:52;100319.84;;;8.12;100.00
30967;BME280;17649;51.836;8.330;2023-12-14T02:09:53;100324.84;;;8.15;100.00
30967;BME280;17649;51.836;8.330;2023-12-14T02:12:53;100328.94;;;7.84;100.00
30967;BME280;17649;51.836;8.330;2023-12-14T02:15:53;100334.59;;;7.18;100.00
30967;BME280;17649;51.836;8.330;2023-12-14T02:18:54;100336.72;;;7.65;100.00
30967;BME280;17649;51.836;8.330;2023-12-14T02:21:57;100334.94;;;7.48;100.00
30967;BME280;17649;51.836;8.330;2023-12-14T02:24:57;100343.28;;;7.35;100.00
30967;BME280;17649;51.836;8.330;2023-12-14T02:27:57;100351.44;;;7.44;100.00
30967;BME280;17649;51.836;8.330;2023-12-14T02:30:58;100358.50;;;7.39;100.00
30967;BME280;17649;51.836;8.330;2023-12-14T02:33:58;100359.63;;;7.53;100.00
30967;BME280;17649;51.836;8.330;2023-12-14T02:36:58;100357.16;;;7.68;100.00
30967;BME280;17649;51.836;8.330;2023-12-14T02:40:00;100362.91;;;7.37;100.00
30967;BME280;17649;51.836;8.330;2023-12-14T02:43:00;100369.63;;;7.59;100.00
30967;BME280;17649;51.836;8.330;2023-12-14T02:46:01;100381.53;;;7.42;100.00
30967;BME280;17649;51.836;8.330;2023-12-14T02:49:02;100385.72;;;7.45;100.00
30967;BME280;17649;51.836;8.330;2023-12-14T02:52:03;100393.59;;;7.61;100.00
30967;BME280;17649;51.836;8.330;2023-12-14T02:55:03;100396.97;;;7.80;100.00
30967;BME280;17649;51.836;8.330;2023-12-14T02:58:04;100400.63;;;7.93;100.00
30967;BME280;17649;51.836;8.330;2023-12-14T03:01:04;100397.91;;;7.96;100.00
30967;BME280;17649;51.836;8.330;2023-12-14T03:04:06;100408.97;;;7.98;100.00
30967;BME280;17649;51.836;8.330;2023-12-14T03:07:07;100407.03;;;7.85;100.00
30967;BME280;17649;51.836;8.330;2023-12-14T03:10:07;100410.91;;;7.76;100.00
30967;BME280;17649;51.836;8.330;2023-12-14T03:13:08;100402.13;;;7.80;100.00
30967;BME280;17649;51.836;8.330;2023-12-14T03:16:08;100410.19;;;7.91;100.00
30967;BME280;17649;51.836;8.330;2023-12-14T03:19:08;100419.28;;;7.98;100.00
30967;BME280;17649;51.836;8.330;2023-12-14T03:22:09;100421.63;;;8.03;100.00
30967;BME280;17649;51.836;8.330;2023-12-14T03:25:09;100419.66;;;7.91;100.00
30967;BME280;17649;51.836;8.330;2023-12-14T03:28:10;100428.50;;;8.02;100.00
30967;BME280;17649;51.836;8.330;2023-12-14T03:31:11;100431.44;;;8.14;100.00
30967;BME280;17649;51.836;8.330;2023-12-14T03:34:12;100433.13;;;7.96;100.00
30967;BME280;17649;51.836;8.330;2023-12-14T03:37:12;100443.31;;;7.80;100.00
30967;BME280;17649;51.836;8.330;2023-12-14T03:40:14;100458.28;;;7.34;100.00
30967;BME280;17649;51.836;8.330;2023-12-14T03:43:15;100457.75;;;7.46;100.00
30967;BME280;17649;51.836;8.330;2023-12-14T03:46:15;100466.69;;;7.19;100.00
30967;BME280;17649;51.836;8.330;2023-12-14T03:49:15;100469.25;;;7.19;100.00
30967;BME280;17649;51.836;8.330;2023-12-14T03:52:16;100476.38;;;7.52;100.00
30967;BME280;17649;51.836;8.330;2023-12-14T03:55:16;100474.72;;;7.69;100.00
30967;BME280;17649;51.836;8.330;2023-12-14T03:58:16;100481.22;;;7.59;100.00
30967;BME280;17649;51.836;8.330;2023-12-14T04:01:17;100485.84;;;7.51;100.00
30967;BME280;17649;51.836;8.330;2023-12-14T04:04:18;100499.56;;;7.70;100.00
30967;BME280;17649;51.836;8.330;2023-12-14T04:07:20;100505.00;;;7.45;100.00
30967;BME280;17649;51.836;8.330;2023-12-14T04:10:21;100497.28;;;7.64;100.00
30967;BME280;17649;51.836;8.330;2023-12-14T04:13:21;100504.25;;;7.62;100.00
30967;BME280;17649;51.836;8.330;2023-12-14T04:16:22;100512.16;;;7.58;100.00
30967;BME280;17649;51.836;8.330;2023-12-14T04:19:23;100515.47;;;7.41;100.00
30967;BME280;17649;51.836;8.330;2023-12-14T04:22:23;100524.03;;;7.41;100.00
30967;BME280;17649;51.836;8.330;2023-12-14T04:25:23;100532.81;;;7.17;100.00
30967;BME280;17649;51.836;8.330;2023-12-14T04:28:24;100546.56;;;7.36;100.00
30967;BME280;17649;51.836;8.330;2023-12-14T04:31:24;100546.50;;;7.17;100.00
30967;BME280;17649;51.836;8.330;2023-12-14T04:34:24;100566.69;;;6.86;100.00
30967;BME280;17649;51.836;8.330;2023-12-14T04:37:25;100562.19;;;7.11;100.00
30967;BME280;17649;51.836;8.330;2023-12-14T04:40:25;100572.31;;;7.36;100.00
30967;BME280;17649;51.836;8.330;2023-12-14T04:43:25;100567.16;;;7.36;100.00
30967;BME280;17649;51.836;8.330;2023-12-14T04:46:29;100569.97;;;7.51;100.00
30967;BME280;17649;51.836;8.330;2023-12-14T04:49:29;100580.41;;;7.47;100.00
30967;BME280;17649;51.836;8.330;2023-12-14T04:52:30;100583.34;;;7.59;100.00
30967;BME280;17649;51.836;8.330;2023-12-14T04:55:30;100582.88;;;7.69;100.00
30967;BME280;17649;51.836;8.330;2023-12-14T04:58:31;100589.47;;;7.76;100.00
30967;BME280;17649;51.836;8.330;2023-12-14T05:01:31;100588.50;;;7.59;100.00
30967;BME280;17649;51.836;8.330;2023-12-14T05:04:31;100592.00;;;7.37;100.00
30967;BME280;17649;51.836;8.330;2023-12-14T05:07:32;100597.47;;;7.30;100.00
30967;BME280;17649;51.836;8.330;2023-12-14T05:10:32;100612.81;;;7.11;100.00
30967;BME280;17649;51.836;8.330;2023-12-14T05:13:32;100616.13;;;6.93;100.00
30967;BME280;17649;51.836;8.330;2023-12-14T05:16:33;100614.81;;;6.82;100.00
30967;BME280;17649;51.836;8.330;2023-12-14T05:19:34;100623.84;;;6.93;100.00
30967;BME280;17649;51.836;8.330;2023-12-14T05:22:34;100631.78;;;7.08;100.00
30967;BME280;17649;51.836;8.330;2023-12-14T05:25:34;100632.34;;;7.16;100.00
30967;BME280;17649;51.836;8.330;2023-12-14T05:28:35;100631.06;;;6.84;100.00
30967;BME280;17649;51.836;8.330;2023-12-14T05:31:35;100640.38;;;6.87;100.00
30967;BME280;17649;51.836;8.330;2023-12-14T05:34:35;100637.78;;;7.09;100.00
30967;BME280;17649;51.836;8.330;2023-12-14T05:37:40;100637.81;;;7.29;100.00
30967;BME280;17649;51.836;8.330;2023-12-14T05:40:41;100651.41;;;7.33;100.00
30967;BME280;17649;51.836;8.330;2023-12-14T05:43:42;100652.44;;;7.07;100.00
30967;BME280;17649;51.836;8.330;2023-12-14T05:46:43;100659.69;;;6.97;100.00
30967;BME280;17649;51.836;8.330;2023-12-14T05:49:43;100670.75;;;6.77;100.00
30967;BME280;17649;51.836;8.330;2023-12-14T05:52:44;100679.34;;;7.00;100.00
30967;BME280;17649;51.836;8.330;2023-12-14T05:55:46;100686.03;;;7.04;100.00
30967;BME280;17649;51.836;8.330;2023-12-14T05:58:46;100683.09;;;6.46;100.00
30967;BME280;17649;51.836;8.330;2023-12-14T06:01:46;100690.00;;;6.67;100.00
30967;BME280;17649;51.836;8.330;2023-12-14T06:04:47;100693.69;;;7.05;100.00
30967;BME280;17649;51.836;8.330;2023-12-14T06:07:48;100688.94;;;6.95;100.00
30967;BME280;17649;51.836;8.330;2023-12-14T06:10:49;100694.88;;;6.75;100.00
30967;BME280;17649;51.836;8.330;2023-12-14T06:13:49;100695.13;;;6.67;100.00
30967;BME280;17649;51.836;8.330;2023-12-14T06:16:53;100698.78;;;6.83;100.00
30967;BME280;17649;51.836;8.330;2023-12-14T06:19:53;100709.47;;;6.51;100.00
30967;BME280;17649;51.836;8.330;2023-12-14T06:22:53;100713.38;;;6.84;100.00
30967;BME280;17649;51.836;8.330;2023-12-14T06:25:54;100718.19;;;6.47;100.00
30967;BME280;17649;51.836;8.330;2023-12-14T06:28:55;100723.16;;;6.51;100.00
30967;BME280;17649;51.836;8.330;2023-12-14T06:31:56;100724.31;;;6.66;100.00
30967;BME280;17649;51.836;8.330;2023-12-14T06:34:56;100730.75;;;6.78;100.00
30967;BME280;17649;51.836;8.330;2023-12-14T06:37:57;100740.19;;;6.54;100.00
30967;BME280;17649;51.836;8.330;2023-12-14T06:40:57;100742.97;;;6.24;100.00
30967;BME280;17649;51.836;8.330;2023-12-14T06:43:59;100749.56;;;6.56;100.00
30967;BME280;17649;51.836;8.330;2023-12-14T06:46:59;100748.72;;;6.56;100.00
30967;BME280;17649;51.836;8.330;2023-12-14T06:50:00;100753.94;;;6.30;100.00
30967;BME280;17649;51.836;8.330;2023-12-14T06:53:00;100763.56;;;6.23;100.00
30967;BME280;17649;51.836;8.330;2023-12-14T06:56:00;100770.50;;;6.46;100.00
30967;BME280;17649;51.836;8.330;2023-12-14T06:59:01;100776.41;;;6.23;100.00
30967;BME280;17649;51.836;8.330;2023-12-14T07:02:01;100782.91;;;6.58;100.00
30967;BME280;17649;51.836;8.330;2023-12-14T07:05:01;100792.13;;;6.64;100.00
30967;BME280;17649;51.836;8.330;2023-12-14T07:08:04;100800.47;;;6.70;100.00
30967;BME280;17649;51.836;8.330;2023-12-14T07:11:05;100805.59;;;6.94;100.00
30967;BME280;17649;51.836;8.330;2023-12-14T07:14:05;100811.47;;;6.74;100.00
30967;BME280;17649;51.836;8.330;2023-12-14T07:17:06;100821.13;;;6.44;100.00
30967;BME280;17649;51.836;8.330;2023-12-14T07:20:06;100822.81;;;6.68;100.00
30967;BME280;17649;51.836;8.330;2023-12-14T07:23:07;100840.38;;;6.80;100.00
30967;BME280;17649;51.836;8.330;2023-12-14T07:26:07;100849.25;;;6.22;100.00
30967;BME280;17649;51.836;8.330;2023-12-14T07:29:08;100856.03;;;6.24;100.00
30967;BME280;17649;51.836;8.330;2023-12-14T07:32:08;100863.34;;;6.37;100.00
30967;BME280;17649;51.836;8.330;2023-12-14T07:35:08;100874.88;;;6.50;100.00
30967;BME280;17649;51.836;8.330;2023-12-14T07:38:10;100881.31;;;6.12;100.00
30967;BME280;17649;51.836;8.330;2023-12-14T07:41:11;100877.78;;;6.14;100.00
30967;BME280;17649;51.836;8.330;2023-12-14T07:44:11;100884.22;;;6.52;100.00
30967;BME280;17649;51.836;8.330;2023-12-14T07:47:11;100888.59;;;6.75;100.00
30967;BME280;17649;51.836;8.330;2023-12-14T07:50:12;100889.22;;;6.57;100.00
30967;BME280;17649;51.836;8.330;2023-12-14T07:53:13;100896.34;;;6.49;100.00
30967;BME280;17649;51.836;8.330;2023-12-14T07:56:13;100898.03;;;6.50;100.00
30967;BME280;17649;51.836;8.330;2023-12-14T07:59:13;100911.13;;;6.67;100.00
30967;BME280;17649;51.836;8.330;2023-12-14T08:02:14;100917.81;;;6.73;100.00
30967;BME280;17649;51.836;8.330;2023-12-14T08:05:14;100924.00;;;6.92;100.00
30967;BME280;17649;51.836;8.330;2023-12-14T08:08:14;100927.56;;;6.63;100.00
30967;BME280;17649;51.836;8.330;2023-12-14T08:11:15;100935.06;;;6.69;100.00
30967;BME280;17649;51.836;8.330;2023-12-14T08:14:15;100933.31;;;6.71;100.00
30967;BME280;17649;51.836;8.330;2023-12-14T08:17:15;100945.25;;;6.97;100.00
30967;BME280;17649;51.836;8.330;2023-12-14T08:20:16;100959.53;;;7.06;100.00
30967;BME280;17649;51.836;8.330;2023-12-14T08:23:16;100959.19;;;6.92;100.00
30967;BME280;17649;51.836;8.330;2023-12-14T08:26:17;100968.56;;;6.93;100.00
30967;BME280;17649;51.836;8.330;2023-12-14T08:29:17;100978.75;;;6.96;100.00
30967;BME280;17649;51.836;8.330;2023-12-14T08:32:18;100982.06;;;6.74;100.00
30967;BME280;17649;51.836;8.330;2023-12-14T08:35:18;100984.81;;;6.68;100.00
30967;BME280;17649;51.836;8.330;2023-12-14T08:38:18;100991.72;;;6.41;100.00
30967;BME280;17649;51.836;8.330;2023-12-14T08:41:19;100988.78;;;6.52;100.00
30967;BME280;17649;51.836;8.330;2023-12-14T08:44:19;100996.03;;;6.39;100.00
30967;BME280;17649;51.836;8.330;2023-12-14T08:47:19;100997.50;;;6.74;100.00
30967;BME280;17649;51.836;8.330;2023-12-14T08:50:20;100999.66;;;6.86;100.00
30967;BME280;17649;51.836;8.330;2023-12-14T08:53:20;100996.53;;;6.77;100.00
30967;BME280;17649;51.836;8.330;2023-12-14T08:56:20;101001.84;;;6.46;100.00
30967;BME280;17649;51.836;8.330;2023-12-14T08:59:21;101005.81;;;6.56;100.00
30967;BME280;17649;51.836;8.330;2023-12-14T09:02:21;101020.09;;;6.10;100.00
30967;BME280;17649;51.836;8.330;2023-12-14T09:05:22;101026.19;;;6.06;100.00
30967;BME280;17649;51.836;8.330;2023-12-14T09:08:22;101019.34;;;6.61;100.00
30967;BME280;17649;51.836;8.330;2023-12-14T09:11:22;101031.59;;;6.79;100.00
30967;BME280;17649;51.836;8.330;2023-12-14T09:14:23;101047.63;;;6.61;100.00
30967;BME280;17649;51.836;8.330;2023-12-14T09:17:26;101047.75;;;6.58;100.00
30967;BME280;17649;51.836;8.330;2023-12-14T09:20:32;101055.63;;;6.52;100.00
30967;BME280;17649;51.836;8.330;2023-12-14T09:23:35;101057.31;;;6.79;100.00
30967;BME280;17649;51.836;8.330;2023-12-14T09:26:35;101074.66;;;6.74;100.00
30967;BME280;17649;51.836;8.330;2023-12-14T09:29:36;101069.00;;;6.90;100.00
30967;BME280;17649;51.836;8.330;2023-12-14T09:32:36;101073.53;;;7.08;100.00
30967;BME280;17649;51.836;8.330;2023-12-14T09:35:36;101074.09;;;7.17;100.00
30967;BME280;17649;51.836;8.330;2023-12-14T09:38:37;101070.25;;;7.29;100.00
30967;BME280;17649;51.836;8.330;2023-12-14T09:41:38;101071.91;;;7.55;100.00
30967;BME280;17649;51.836;8.330;2023-12-14T09:44:39;101073.78;;;7.75;100.00
30967;BME280;17649;51.836;8.330;2023-12-14T09:47:39;101094.09;;;7.34;100.00
30967;BME280;17649;51.836;8.330;2023-12-14T09:50:41;101094.13;;;7.58;100.00
30967;BME280;17649;51.836;8.330;2023-12-14T09:53:42;101096.44;;;7.65;100.00
30967;BME280;17649;51.836;8.330;2023-12-14T09:56:47;101110.56;;;7.04;100.00
30967;BME280;17649;51.836;8.330;2023-12-14T09:59:52;101116.50;;;7.32;100.00
30967;BME280;17649;51.836;8.330;2023-12-14T10:02:52;101125.16;;;7.30;100.00
30967;BME280;17649;51.836;8.330;2023-12-14T10:05:54;101127.69;;;7.31;100.00
30967;BME280;17649;51.836;8.330;2023-12-14T10:08:55;101137.59;;;7.42;100.00
30967;BME280;17649;51.836;8.330;2023-12-14T10:12:07;101142.06;;;7.10;100.00
30967;BME280;17649;51.836;8.330;2023-12-14T10:15:09;101144.16;;;7.26;100.00
30967;BME280;17649;51.836;8.330;2023-12-14T10:18:10;101150.13;;;7.26;100.00
30967;BME280;17649;51.836;8.330;2023-12-14T10:21:10;101151.09;;;6.69;100.00
30967;BME280;17649;51.836;8.330;2023-12-14T10:24:11;101157.16;;;6.67;100.00
30967;BME280;17649;51.836;8.330;2023-12-14T10:27:11;101151.59;;;6.80;100.00
30967;BME280;17649;51.836;8.330;2023-12-14T10:30:12;101159.84;;;6.92;100.00
30967;BME280;17649;51.836;8.330;2023-12-14T10:33:13;101161.94;;;7.07;100.00
30967;BME280;17649;51.836;8.330;2023-12-14T10:36:19;101163.38;;;7.15;100.00
30967;BME280;17649;51.836;8.330;2023-12-14T10:39:22;101169.88;;;6.99;100.00
30967;BME280;17649;51.836;8.330;2023-12-14T10:42:24;101163.72;;;6.77;100.00
30967;BME280;17649;51.836;8.330;2023-12-14T10:45:30;101175.91;;;7.00;100.00
30967;BME280;17649;51.836;8.330;2023-12-14T10:48:34;101177.81;;;7.20;100.00
30967;BME280;17649;51.836;8.330;2023-12-14T10:51:35;101176.59;;;7.31;100.00
30967;BME280;17649;51.836;8.330;2023-12-14T10:54:38;101179.44;;;7.48;100.00
30967;BME280;17649;51.836;8.330;2023-12-14T10:57:39;101182.31;;;7.39;100.00
30967;BME280;17649;51.836;8.330;2023-12-14T11:00:42;101179.34;;;7.25;100.00
30967;BME280;17649;51.836;8.330;2023-12-14T11:03:43;101186.47;;;7.43;100.00
30967;BME280;17649;51.836;8.330;2023-12-14T11:06:45;101192.13;;;7.28;100.00
30967;BME280;17649;51.836;8.330;2023-12-14T11:09:48;101201.31;;;7.09;100.00
30967;BME280;17649;51.836;8.330;2023-12-14T11:15:55;101201.78;;;6.94;100.00
30967;BME280;17649;51.836;8.330;2023-12-14T11:19:25;101207.66;;;7.25;100.00
30967;BME280;17649;51.836;8.330;2023-12-14T11:22:28;101205.91;;;6.99;100.00
30967;BME280;17649;51.836;8.330;2023-12-14T11:25:29;101211.84;;;7.29;100.00
30967;BME280;17649;51.836;8.330;2023-12-14T11:28:31;101211.13;;;6.96;100.00
30967;BME280;17649;51.836;8.330;2023-12-14T11:31:32;101212.81;;;7.25;100.00
30967;BME280;17649;51.836;8.330;2023-12-14T11:34:33;101223.84;;;7.02;100.00
30967;BME280;17649;51.836;8.330;2023-12-14T11:37:33;101223.41;;;6.88;100.00
30967;BME280;17649;51.836;8.330;2023-12-14T11:40:44;101228.84;;;7.07;100.00
30967;BME280;17649;51.836;8.330;2023-12-14T11:43:44;101231.19;;;7.14;100.00
30967;BME280;17649;51.836;8.330;2023-12-14T11:46:45;101242.63;;;7.32;100.00
30967;BME280;17649;51.836;8.330;2023-12-14T11:49:45;101248.78;;;7.27;100.00
30967;BME280;17649;51.836;8.330;2023-12-14T11:52:45;101239.94;;;7.35;100.00
30967;BME280;17649;51.836;8.330;2023-12-14T11:55:46;101247.13;;;7.26;100.00
30967;BME280;17649;51.836;8.330;2023-12-14T11:58:46;101250.84;;;7.17;100.00
30967;BME280;17649;51.836;8.330;2023-12-14T12:01:57;101254.09;;;7.22;100.00
30967;BME280;17649;51.836;8.330;2023-12-14T12:04:58;101257.34;;;7.01;100.00
30967;BME280;17649;51.836;8.330;2023-12-14T12:07:59;101258.59;;;7.15;100.00
30967;BME280;17649;51.836;8.330;2023-12-14T12:10:59;101265.59;;;7.38;100.00
30967;BME280;17649;51.836;8.330;2023-12-14T12:13:59;101274.63;;;7.24;100.00
30967;BME280;17649;51.836;8.330;2023-12-14T12:17:00;101272.59;;;7.07;100.00
30967;BME280;17649;51.836;8.330;2023-12-14T12:20:00;101272.31;;;7.44;100.00
30967;BME280;17649;51.836;8.330;2023-12-14T12:23:01;101282.50;;;7.19;100.00
30967;BME280;17649;51.836;8.330;2023-12-14T12:26:03;101272.31;;;7.42;100.00
30967;BME280;17649;51.836;8.330;2023-12-14T12:29:03;101280.44;;;7.57;100.00
30967;BME280;17649;51.836;8.330;2023-12-14T12:32:06;101273.66;;;7.54;100.00
30967;BME280;17649;51.836;8.330;2023-12-14T12:35:06;101276.50;;;7.73;100.00
30967;BME280;17649;51.836;8.330;2023-12-14T12:38:07;101282.69;;;7.67;100.00
30967;BME280;17649;51.836;8.330;2023-12-14T12:41:07;101277.88;;;7.83;100.00
30967;BME280;17649;51.836;8.330;2023-12-14T12:44:08;101273.94;;;7.18;100.00
30967;BME280;17649;51.836;8.330;2023-12-14T12:47:09;101264.09;;;7.58;100.00
30967;BME280;17649;51.836;8.330;2023-12-14T12:50:09;101268.31;;;7.87;100.00
30967;BME280;17649;51.836;8.330;2023-12-14T12:53:10;101268.75;;;7.99;100.00
30967;BME280;17649;51.836;8.330;2023-12-14T12:56:10;101276.34;;;8.02;100.00
30967;BME280;17649;51.836;8.330;2023-12-14T12:59:10;101271.94;;;7.81;100.00
30967;BME280;17649;51.836;8.330;2023-12-14T13:02:11;101277.69;;;8.14;100.00
30967;BME280;17649;51.836;8.330;2023-12-14T13:05:11;101282.00;;;8.14;100.00
30967;BME280;17649;51.836;8.330;2023-12-14T13:08:12;101283.50;;;7.15;100.00
30967;BME280;17649;51.836;8.330;2023-12-14T13:11:12;101268.13;;;7.40;100.00
30967;BME280;17649;51.836;8.330;2023-12-14T13:14:12;101279.78;;;7.78;100.00
30967;BME280;17649;51.836;8.330;2023-12-14T13:17:14;101287.56;;;8.01;100.00
30967;BME280;17649;51.836;8.330;2023-12-14T13:20:18;101299.03;;;8.18;100.00
30967;BME280;17649;51.836;8.330;2023-12-14T13:23:19;101293.78;;;7.96;100.00
30967;BME280;17649;51.836;8.330;2023-12-14T13:26:19;101295.88;;;8.10;100.00
30967;BME280;17649;51.836;8.330;2023-12-14T13:29:20;101304.19;;;7.93;100.00
30967;BME280;17649;51.836;8.330;2023-12-14T13:32:20;101313.63;;;7.39;100.00
30967;BME280;17649;51.836;8.330;2023-12-14T13:35:21;101322.53;;;6.70;100.00
30967;BME280;17649;51.836;8.330;2023-12-14T13:38:22;101328.03;;;6.87;100.00
30967;BME280;17649;51.836;8.330;2023-12-14T13:41:22;101337.75;;;6.78;100.00
30967;BME280;17649;51.836;8.330;2023-12-14T13:44:23;101341.59;;;6.63;100.00
30967;BME280;17649;51.836;8.330;2023-12-14T13:47:25;101347.78;;;6.56;100.00
30967;BME280;17649;51.836;8.330;2023-12-14T13:50:26;101354.25;;;6.69;100.00
30967;BME280;17649;51.836;8.330;2023-12-14T13:53:27;101371.56;;;6.32;100.00
30967;BME280;17649;51.836;8.330;2023-12-14T13:56:28;101375.84;;;6.31;100.00
30967;BME280;17649;51.836;8.330;2023-12-14T13:59:28;101367.63;;;6.51;100.00
30967;BME280;17649;51.836;8.330;2023-12-14T14:02:28;101379.59;;;6.83;100.00
30967;BME280;17649;51.836;8.330;2023-12-14T14:05:29;101383.56;;;6.64;100.00
30967;BME280;17649;51.836;8.330;2023-12-14T14:08:30;101397.00;;;6.75;100.00
30967;BME280;17649;51.836;8.330;2023-12-14T14:11:31;101405.69;;;7.02;100.00
30967;BME280;17649;51.836;8.330;2023-12-14T14:14:31;101401.81;;;6.87;100.00
30967;BME280;17649;51.836;8.330;2023-12-14T14:17:32;101416.31;;;6.90;100.00
30967;BME280;17649;51.836;8.330;2023-12-14T14:20:32;101414.34;;;6.67;100.00
30967;BME280;17649;51.836;8.330;2023-12-14T14:23:34;101426.41;;;6.31;100.00
30967;BME280;17649;51.836;8.330;2023-12-14T14:26:35;101441.47;;;6.46;100.00
30967;BME280;17649;51.836;8.330;2023-12-14T14:29:35;101441.91;;;6.27;100.00
30967;BME280;17649;51.836;8.330;2023-12-14T14:32:36;101432.25;;;6.37;100.00
30967;BME280;17649;51.836;8.330;2023-12-14T14:35:37;101447.41;;;6.48;100.00
30967;BME280;17649;51.836;8.330;2023-12-14T14:38:38;101449.03;;;6.16;100.00
30967;BME280;17649;51.836;8.330;2023-12-14T14:41:38;101462.34;;;5.95;100.00
30967;BME280;17649;51.836;8.330;2023-12-14T14:44:39;101477.53;;;6.06;100.00
30967;BME280;17649;51.836;8.330;2023-12-14T14:47:40;101476.84;;;5.99;100.00
30967;BME280;17649;51.836;8.330;2023-12-14T14:50:42;101476.94;;;6.32;100.00
30967;BME280;17649;51.836;8.330;2023-12-14T14:53:42;101485.81;;;6.54;100.00
30967;BME280;17649;51.836;8.330;2023-12-14T14:56:43;101484.72;;;6.28;100.00
30967;BME280;17649;51.836;8.330;2023-12-14T14:59:43;101488.38;;;6.55;100.00
30967;BME280;17649;51.836;8.330;2023-12-14T15:02:44;101495.53;;;6.43;100.00
30967;BME280;17649;51.836;8.330;2023-12-14T15:05:44;101498.91;;;6.45;100.00
30967;BME280;17649;51.836;8.330;2023-12-14T15:08:45;101496.94;;;6.56;100.00
30967;BME280;17649;51.836;8.330;2023-12-14T15:11:45;101509.63;;;6.62;100.00
30967;BME280;17649;51.836;8.330;2023-12-14T15:14:45;101514.34;;;6.45;100.00
30967;BME280;17649;51.836;8.330;2023-12-14T15:17:46;101516.81;;;6.48;100.00
30967;BME280;17649;51.836;8.330;2023-12-14T15:20:46;101527.38;;;6.36;100.00
30967;BME280;17649;51.836;8.330;2023-12-14T15:23:48;101526.47;;;6.38;100.00
30967;BME280;17649;51.836;8.330;2023-12-14T15:26:49;101526.81;;;6.23;100.00
30967;BME280;17649;51.836;8.330;2023-12-14T15:29:49;101529.47;;;6.20;100.00
30967;BME280;17649;51.836;8.330;2023-12-14T15:32:50;101534.34;;;6.32;100.00
30967;BME280;17649;51.836;8.330;2023-12-14T15:35:50;101537.91;;;6.26;100.00
30967;BME280;17649;51.836;8.330;2023-12-14T15:38:51;101542.38;;;6.17;100.00
30967;BME280;17649;51.836;8.330;2023-12-14T15:41:51;101547.84;;;6.02;100.00
30967;BME280;17649;51.836;8.330;2023-12-14T15:44:51;101555.69;;;5.97;100.00
30967;BME280;17649;51.836;8.330;2023-12-14T15:47:52;101556.13;;;6.16;100.00
30967;BME280;17649;51.836;8.330;2023-12-14T15:50:52;101550.59;;;6.33;100.00